sensor_id;sensor_type;location;lat;lon;timestamp;pressure;altitude;pressure_sealevel;temperature;humidity
41467;BME280;27205;53.690;19.948;2023-06-01T00:01:54;99983.29;;;12.71;42.28
41467;BME280;27205;53.690;19.948;2023-06-01T00:06:58;99976.14;;;12.52;42.79
41467;BME280;27205;53.690;19.948;2023-06-01T00:12:05;99974.70;;;12.34;42.57
41467;BME280;27205;53.690;19.948;2023-06-01T00:17:09;99974.16;;;12.22;43.18
41467;BME280;27205;53.690;19.948;2023-06-01T00:22:13;99971.77;;;12.09;43.25
41467;BME280;27205;53.690;19.948;2023-06-01T00:27:16;99970.23;;;11.98;43.21
41467;BME280;27205;53.690;19.948;2023-06-01T00:32:20;99962.89;;;11.84;43.17
41467;BME280;27205;53.690;19.948;2023-06-01T00:37:24;99964.81;;;11.73;44.13
41467;BME280;27205;53.690;19.948;2023-06-01T00:42:27;99962.19;;;11.61;44.35
41467;BME280;27205;53.690;19.948;2023-06-01T00:47:39;99959.95;;;11.51;44.95
41467;BME280;27205;53.690;19.948;2023-06-01T00:52:45;99961.40;;;11.43;45.03
41467;BME280;27205;53.690;19.948;2023-06-01T00:57:50;99959.74;;;11.49;46.16
41467;BME280;27205;53.690;19.948;2023-06-01T01:02:54;99954.00;;;11.65;46.74
41467;BME280;27205;53.690;19.948;2023-06-01T01:13:31;99945.77;;;11.74;46.67
41467;BME280;27205;53.690;19.948;2023-06-01T01:24:38;99929.66;;;11.49;46.63
41467;BME280;27205;53.690;19.948;2023-06-01T01:29:47;99921.11;;;11.36;46.60
41467;BME280;27205;53.690;19.948;2023-06-01T01:34:53;99910.45;;;11.25;46.98
41467;BME280;27205;53.690;19.948;2023-06-01T01:39:58;99906.70;;;11.14;47.04
41467;BME280;27205;53.690;19.948;2023-06-01T01:45:02;99902.11;;;11.04;47.28
41467;BME280;27205;53.690;19.948;2023-06-01T01:50:06;99899.59;;;10.94;47.59
41467;BME280;27205;53.690;19.948;2023-06-01T01:55:14;99893.52;;;10.82;47.18
41467;BME280;27205;53.690;19.948;2023-06-01T02:00:19;99894.86;;;10.64;47.95
41467;BME280;27205;53.690;19.948;2023-06-01T02:05:23;99886.68;;;10.46;47.91
41467;BME280;27205;53.690;19.948;2023-06-01T02:10:26;99884.79;;;10.27;48.13
41467;BME280;27205;53.690;19.948;2023-06-01T02:15:30;99883.23;;;10.13;48.84
41467;BME280;27205;53.690;19.948;2023-06-01T02:20:33;99877.79;;;10.02;49.19
41467;BME280;27205;53.690;19.948;2023-06-01T02:25:37;99880.86;;;9.93;49.59
41467;BME280;27205;53.690;19.948;2023-06-01T02:30:41;99877.56;;;9.87;49.74
41467;BME280;27205;53.690;19.948;2023-06-01T02:35:44;99873.67;;;9.83;49.95
41467;BME280;27205;53.690;19.948;2023-06-01T02:40:48;99872.56;;;9.80;49.83
41467;BME280;27205;53.690;19.948;2023-06-01T02:45:51;99872.02;;;9.78;50.40
41467;BME280;27205;53.690;19.948;2023-06-01T02:50:55;99867.04;;;9.79;51.04
41467;BME280;27205;53.690;19.948;2023-06-01T02:55:59;99867.59;;;9.82;50.96
41467;BME280;27205;53.690;19.948;2023-06-01T03:01:03;99869.75;;;9.86;52.36
41467;BME280;27205;53.690;19.948;2023-06-01T03:06:07;99869.35;;;9.93;51.55
41467;BME280;27205;53.690;19.948;2023-06-01T03:11:11;99871.06;;;10.03;52.02
41467;BME280;27205;53.690;19.948;2023-06-01T03:16:15;99874.70;;;10.12;52.88
41467;BME280;27205;53.690;19.948;2023-06-01T03:21:19;99870.70;;;10.21;52.13
41467;BME280;27205;53.690;19.948;2023-06-01T03:26:23;99867.84;;;10.33;52.77
41467;BME280;27205;53.690;19.948;2023-06-01T03:31:27;99864.51;;;10.44;53.25
41467;BME280;27205;53.690;19.948;2023-06-01T03:36:31;99856.20;;;10.56;52.52
41467;BME280;27205;53.690;19.948;2023-06-01T03:41:35;99849.67;;;10.70;52.93
41467;BME280;27205;53.690;19.948;2023-06-01T03:46:39;99847.98;;;10.87;54.05
41467;BME280;27205;53.690;19.948;2023-06-01T03:51:43;99849.81;;;11.09;54.08
41467;BME280;27205;53.690;19.948;2023-06-01T03:56:47;99846.00;;;11.33;53.41
41467;BME280;27205;53.690;19.948;2023-06-01T04:01:51;99847.30;;;11.59;53.75
41467;BME280;27205;53.690;19.948;2023-06-01T04:06:54;99849.83;;;11.83;53.69
41467;BME280;27205;53.690;19.948;2023-06-01T04:12:04;99845.10;;;12.08;54.22
41467;BME280;27205;53.690;19.948;2023-06-01T04:17:08;99840.21;;;12.30;54.64
41467;BME280;27205;53.690;19.948;2023-06-01T04:22:12;99836.88;;;12.52;55.10
41467;BME280;27205;53.690;19.948;2023-06-01T04:27:16;99832.48;;;12.78;55.71
41467;BME280;27205;53.690;19.948;2023-06-01T04:32:19;99828.37;;;13.01;56.20
41467;BME280;27205;53.690;19.948;2023-06-01T04:37:26;99825.37;;;13.26;56.16
41467;BME280;27205;53.690;19.948;2023-06-01T04:42:31;99811.94;;;13.51;55.65
41467;BME280;27205;53.690;19.948;2023-06-01T04:47:35;99802.33;;;13.73;55.85
41467;BME280;27205;53.690;19.948;2023-06-01T04:52:43;99812.77;;;13.95;55.75
41467;BME280;27205;53.690;19.948;2023-06-01T04:57:47;99805.33;;;14.13;56.22
41467;BME280;27205;53.690;19.948;2023-06-01T05:02:51;99799.42;;;14.32;56.41
41467;BME280;27205;53.690;19.948;2023-06-01T05:07:55;99796.25;;;14.50;56.42
41467;BME280;27205;53.690;19.948;2023-06-01T05:12:59;99789.90;;;14.67;57.13
41467;BME280;27205;53.690;19.948;2023-06-01T05:18:03;99786.86;;;14.85;57.67
41467;BME280;27205;53.690;19.948;2023-06-01T05:23:06;99787.61;;;15.03;58.31
41467;BME280;27205;53.690;19.948;2023-06-01T05:28:10;99784.80;;;15.16;59.16
41467;BME280;27205;53.690;19.948;2023-06-01T05:33:14;99782.55;;;15.26;59.35
41467;BME280;27205;53.690;19.948;2023-06-01T05:38:18;99782.88;;;15.37;59.79
41467;BME280;27205;53.690;19.948;2023-06-01T05:43:22;99777.84;;;15.55;59.57
41467;BME280;27205;53.690;19.948;2023-06-01T05:48:25;99774.07;;;15.72;59.23
41467;BME280;27205;53.690;19.948;2023-06-01T05:53:29;99777.05;;;15.88;59.30
41467;BME280;27205;53.690;19.948;2023-06-01T05:58:33;99782.17;;;16.03;59.60
41467;BME280;27205;53.690;19.948;2023-06-01T06:03:36;99779.87;;;16.19;59.73
41467;BME280;27205;53.690;19.948;2023-06-01T06:08:41;99778.27;;;16.32;59.57
41467;BME280;27205;53.690;19.948;2023-06-01T06:13:47;99780.55;;;16.53;59.30
41467;BME280;27205;53.690;19.948;2023-06-01T06:18:51;99788.21;;;16.74;58.97
41467;BME280;27205;53.690;19.948;2023-06-01T06:23:54;99785.40;;;16.85;58.34
41467;BME280;27205;53.690;19.948;2023-06-01T06:29:03;99778.43;;;16.99;57.74
41467;BME280;27205;53.690;19.948;2023-06-01T06:34:06;99777.37;;;17.18;56.82
41467;BME280;27205;53.690;19.948;2023-06-01T06:39:10;99774.75;;;17.37;55.81
41467;BME280;27205;53.690;19.948;2023-06-01T06:44:13;99773.21;;;17.51;55.20
41467;BME280;27205;53.690;19.948;2023-06-01T06:49:17;99777.90;;;17.73;55.03
41467;BME280;27205;53.690;19.948;2023-06-01T06:54:22;99776.81;;;17.92;54.79
41467;BME280;27205;53.690;19.948;2023-06-01T06:59:26;99775.77;;;18.03;54.19
41467;BME280;27205;53.690;19.948;2023-06-01T07:04:30;99770.76;;;18.22;54.16
41467;BME280;27205;53.690;19.948;2023-06-01T07:09:33;99760.30;;;18.39;53.48
41467;BME280;27205;53.690;19.948;2023-06-01T07:14:37;99767.39;;;18.47;52.73
41467;BME280;27205;53.690;19.948;2023-06-01T07:19:40;99758.46;;;18.55;52.45
41467;BME280;27205;53.690;19.948;2023-06-01T07:24:44;99752.48;;;18.68;52.28
41467;BME280;27205;53.690;19.948;2023-06-01T07:29:48;99752.02;;;18.86;51.90
41467;BME280;27205;53.690;19.948;2023-06-01T07:34:57;99755.77;;;18.99;51.48
41467;BME280;27205;53.690;19.948;2023-06-01T07:40:03;99754.95;;;19.13;50.98
41467;BME280;27205;53.690;19.948;2023-06-01T07:45:10;99756.12;;;19.26;50.49
41467;BME280;27205;53.690;19.948;2023-06-01T07:50:14;99751.70;;;19.31;50.16
41467;BME280;27205;53.690;19.948;2023-06-01T07:55:18;99746.34;;;19.47;49.95
41467;BME280;27205;53.690;19.948;2023-06-01T08:00:21;99754.10;;;19.53;48.39
41467;BME280;27205;53.690;19.948;2023-06-01T08:05:25;99740.80;;;19.67;48.55
41467;BME280;27205;53.690;19.948;2023-06-01T08:10:29;99736.35;;;19.78;48.00
41467;BME280;27205;53.690;19.948;2023-06-01T08:15:33;99737.52;;;19.94;47.79
41467;BME280;27205;53.690;19.948;2023-06-01T08:20:40;99738.77;;;20.08;47.54
41467;BME280;27205;53.690;19.948;2023-06-01T08:25:45;99740.73;;;20.22;47.38
41467;BME280;27205;53.690;19.948;2023-06-01T08:30:48;99750.15;;;20.24;46.79
41467;BME280;27205;53.690;19.948;2023-06-01T08:35:52;99739.19;;;20.18;46.14
41467;BME280;27205;53.690;19.948;2023-06-01T08:40:57;99742.39;;;20.10;45.25
41467;BME280;27205;53.690;19.948;2023-06-01T08:46:02;99740.64;;;20.30;44.95
41467;BME280;27205;53.690;19.948;2023-06-01T08:51:07;99739.85;;;20.44;44.49
41467;BME280;27205;53.690;19.948;2023-06-01T08:56:11;99729.73;;;20.46;43.89
41467;BME280;27205;53.690;19.948;2023-06-01T09:01:19;99725.73;;;20.63;43.60
41467;BME280;27205;53.690;19.948;2023-06-01T09:06:24;99723.34;;;20.73;43.11
41467;BME280;27205;53.690;19.948;2023-06-01T09:11:29;99723.82;;;20.84;41.75
41467;BME280;27205;53.690;19.948;2023-06-01T09:16:36;99720.14;;;21.03;41.62
41467;BME280;27205;53.690;19.948;2023-06-01T09:21:58;99725.08;;;21.24;41.34
41467;BME280;27205;53.690;19.948;2023-06-01T09:27:03;99725.39;;;21.41;41.34
41467;BME280;27205;53.690;19.948;2023-06-01T09:32:07;99726.71;;;21.55;41.47
41467;BME280;27205;53.690;19.948;2023-06-01T09:37:10;99728.20;;;21.63;40.95
41467;BME280;27205;53.690;19.948;2023-06-01T09:42:14;99722.85;;;21.62;41.08
41467;BME280;27205;53.690;19.948;2023-06-01T09:47:18;99722.05;;;21.64;40.76
41467;BME280;27205;53.690;19.948;2023-06-01T09:52:21;99715.23;;;21.80;40.49
41467;BME280;27205;53.690;19.948;2023-06-01T09:57:26;99714.20;;;22.03;40.46
41467;BME280;27205;53.690;19.948;2023-06-01T10:02:33;99707.54;;;22.24;40.57
41467;BME280;27205;53.690;19.948;2023-06-01T10:07:37;99706.56;;;22.63;40.58
41467;BME280;27205;53.690;19.948;2023-06-01T10:12:44;99703.30;;;22.83;40.65
41467;BME280;27205;53.690;19.948;2023-06-01T10:17:51;99707.02;;;23.23;40.21
41467;BME280;27205;53.690;19.948;2023-06-01T10:22:55;99702.79;;;23.29;39.54
41467;BME280;27205;53.690;19.948;2023-06-01T10:28:02;99697.65;;;23.33;39.77
41467;BME280;27205;53.690;19.948;2023-06-01T10:33:07;99701.52;;;23.57;39.46
41467;BME280;27205;53.690;19.948;2023-06-01T10:48:55;99706.05;;;23.69;38.71
41467;BME280;27205;53.690;19.948;2023-06-01T10:54:31;99711.19;;;23.61;38.30
41467;BME280;27205;53.690;19.948;2023-06-01T10:59:35;99705.39;;;23.56;38.53
41467;BME280;27205;53.690;19.948;2023-06-01T11:04:39;99699.50;;;23.89;38.50
41467;BME280;27205;53.690;19.948;2023-06-01T11:09:43;99696.13;;;23.98;38.34
41467;BME280;27205;53.690;19.948;2023-06-01T11:15:08;99694.08;;;24.42;38.36
41467;BME280;27205;53.690;19.948;2023-06-01T11:20:14;99699.61;;;24.64;37.51
41467;BME280;27205;53.690;19.948;2023-06-01T11:25:20;99699.23;;;24.12;37.23
41467;BME280;27205;53.690;19.948;2023-06-01T11:30:24;99688.73;;;24.02;37.58
41467;BME280;27205;53.690;19.948;2023-06-01T11:35:28;99685.98;;;24.37;37.35
41467;BME280;27205;53.690;19.948;2023-06-01T11:40:31;99689.05;;;24.38;36.85
41467;BME280;27205;53.690;19.948;2023-06-01T11:45:42;99680.95;;;24.38;36.73
41467;BME280;27205;53.690;19.948;2023-06-01T11:50:46;99688.94;;;24.64;36.49
41467;BME280;27205;53.690;19.948;2023-06-01T11:55:56;99679.40;;;24.82;36.27
41467;BME280;27205;53.690;19.948;2023-06-01T12:01:02;99682.38;;;25.34;35.62
41467;BME280;27205;53.690;19.948;2023-06-01T12:06:07;99679.83;;;25.42;34.86
41467;BME280;27205;53.690;19.948;2023-06-01T12:11:13;99674.07;;;25.69;34.99
41467;BME280;27205;53.690;19.948;2023-06-01T12:16:19;99684.61;;;25.97;34.36
41467;BME280;27205;53.690;19.948;2023-06-01T12:21:24;99682.82;;;26.15;34.17
41467;BME280;27205;53.690;19.948;2023-06-01T12:26:37;99673.73;;;26.00;33.92
41467;BME280;27205;53.690;19.948;2023-06-01T12:31:52;99666.80;;;26.40;33.89
41467;BME280;27205;53.690;19.948;2023-06-01T12:36:57;99664.48;;;26.44;33.65
41467;BME280;27205;53.690;19.948;2023-06-01T12:42:00;99664.70;;;26.30;33.50
41467;BME280;27205;53.690;19.948;2023-06-01T12:53:04;99657.98;;;26.72;32.98
41467;BME280;27205;53.690;19.948;2023-06-01T12:58:08;99654.60;;;27.01;32.69
41467;BME280;27205;53.690;19.948;2023-06-01T13:03:12;99652.65;;;27.19;32.64
41467;BME280;27205;53.690;19.948;2023-06-01T13:14:30;99650.21;;;26.92;32.34
41467;BME280;27205;53.690;19.948;2023-06-01T13:19:34;99648.09;;;26.90;32.59
41467;BME280;27205;53.690;19.948;2023-06-01T13:24:37;99647.06;;;27.13;32.04
41467;BME280;27205;53.690;19.948;2023-06-01T13:30:02;99644.60;;;27.16;31.81
41467;BME280;27205;53.690;19.948;2023-06-01T13:35:07;99642.87;;;27.26;31.89
41467;BME280;27205;53.690;19.948;2023-06-01T13:40:11;99647.23;;;26.97;31.82
41467;BME280;27205;53.690;19.948;2023-06-01T13:45:16;99645.61;;;27.13;31.63
41467;BME280;27205;53.690;19.948;2023-06-01T13:50:20;99643.41;;;28.23;31.01
41467;BME280;27205;53.690;19.948;2023-06-01T13:55:26;99650.96;;;30.68;29.46
41467;BME280;27205;53.690;19.948;2023-06-01T14:00:31;99644.79;;;29.85;29.22
41467;BME280;27205;53.690;19.948;2023-06-01T14:05:35;99647.90;;;31.74;28.15
41467;BME280;27205;53.690;19.948;2023-06-01T14:10:53;99647.86;;;35.17;26.02
41467;BME280;27205;53.690;19.948;2023-06-01T14:15:57;99642.45;;;38.70;23.58
41467;BME280;27205;53.690;19.948;2023-06-01T14:21:01;99652.70;;;41.45;21.18
41467;BME280;27205;53.690;19.948;2023-06-01T14:26:05;99650.33;;;43.72;19.61
41467;BME280;27205;53.690;19.948;2023-06-01T14:31:09;99643.96;;;45.66;18.29
41467;BME280;27205;53.690;19.948;2023-06-01T14:36:13;99639.53;;;47.88;17.31
41467;BME280;27205;53.690;19.948;2023-06-01T14:41:16;99639.23;;;48.62;15.63
41467;BME280;27205;53.690;19.948;2023-06-01T14:46:20;99642.45;;;48.31;14.17
41467;BME280;27205;53.690;19.948;2023-06-01T14:51:24;99638.43;;;46.82;14.04
41467;BME280;27205;53.690;19.948;2023-06-01T14:56:28;99636.82;;;46.62;14.09
41467;BME280;27205;53.690;19.948;2023-06-01T15:01:31;99625.19;;;44.49;14.57
41467;BME280;27205;53.690;19.948;2023-06-01T15:06:35;99626.46;;;44.63;14.55
41467;BME280;27205;53.690;19.948;2023-06-01T15:11:40;99618.59;;;40.65;16.43
41467;BME280;27205;53.690;19.948;2023-06-01T15:16:44;99614.24;;;40.05;17.33
41467;BME280;27205;53.690;19.948;2023-06-01T15:21:47;99611.55;;;37.51;18.38
41467;BME280;27205;53.690;19.948;2023-06-01T15:26:51;99603.73;;;36.22;19.52
41467;BME280;27205;53.690;19.948;2023-06-01T15:31:54;99605.55;;;38.07;19.71
41467;BME280;27205;53.690;19.948;2023-06-01T15:36:58;99624.33;;;39.33;19.77
41467;BME280;27205;53.690;19.948;2023-06-01T15:42:06;99614.40;;;39.28;19.83
41467;BME280;27205;53.690;19.948;2023-06-01T15:47:10;99621.73;;;39.48;19.88
41467;BME280;27205;53.690;19.948;2023-06-01T15:52:14;99627.40;;;39.30;19.95
41467;BME280;27205;53.690;19.948;2023-06-01T15:57:17;99640.46;;;39.28;19.91
41467;BME280;27205;53.690;19.948;2023-06-01T16:02:21;99645.89;;;38.88;19.99
41467;BME280;27205;53.690;19.948;2023-06-01T16:07:25;99646.73;;;38.54;20.54
41467;BME280;27205;53.690;19.948;2023-06-01T16:12:28;99647.19;;;37.86;20.49
41467;BME280;27205;53.690;19.948;2023-06-01T16:17:32;99649.68;;;37.03;20.63
41467;BME280;27205;53.690;19.948;2023-06-01T16:22:37;99660.64;;;36.98;20.83
41467;BME280;27205;53.690;19.948;2023-06-01T16:27:40;99659.29;;;36.66;21.16
41467;BME280;27205;53.690;19.948;2023-06-01T16:32:44;99658.89;;;36.28;21.57
41467;BME280;27205;53.690;19.948;2023-06-01T16:37:48;99651.95;;;35.18;22.38
41467;BME280;27205;53.690;19.948;2023-06-01T16:42:53;99654.58;;;34.52;22.83
41467;BME280;27205;53.690;19.948;2023-06-01T16:47:56;99651.88;;;34.17;23.39
41467;BME280;27205;53.690;19.948;2023-06-01T16:53:00;99654.92;;;34.27;23.67
41467;BME280;27205;53.690;19.948;2023-06-01T16:58:04;99653.66;;;34.51;23.60
41467;BME280;27205;53.690;19.948;2023-06-01T17:03:07;99658.75;;;31.85;25.67
41467;BME280;27205;53.690;19.948;2023-06-01T17:16:08;99653.48;;;25.20;32.21
41467;BME280;27205;53.690;19.948;2023-06-01T17:21:21;99641.95;;;23.64;33.92
41467;BME280;27205;53.690;19.948;2023-06-01T17:26:37;99653.77;;;23.83;36.25
41467;BME280;27205;53.690;19.948;2023-06-01T17:31:43;99648.17;;;23.77;36.20
41467;BME280;27205;53.690;19.948;2023-06-01T17:43:06;99659.29;;;23.98;36.72
41467;BME280;27205;53.690;19.948;2023-06-01T17:48:15;99663.33;;;23.38;37.14
41467;BME280;27205;53.690;19.948;2023-06-01T17:53:53;99665.70;;;22.70;38.38
41467;BME280;27205;53.690;19.948;2023-06-01T17:58:57;99675.39;;;21.17;39.87
41467;BME280;27205;53.690;19.948;2023-06-01T18:04:01;99668.08;;;20.41;41.96
41467;BME280;27205;53.690;19.948;2023-06-01T18:09:04;99668.66;;;20.13;42.46
41467;BME280;27205;53.690;19.948;2023-06-01T18:14:08;99668.16;;;19.76;43.50
41467;BME280;27205;53.690;19.948;2023-06-01T18:19:11;99664.20;;;19.15;44.54
41467;BME280;27205;53.690;19.948;2023-06-01T18:24:15;99663.85;;;18.33;45.71
41467;BME280;27205;53.690;19.948;2023-06-01T18:29:18;99668.86;;;17.71;48.37
41467;BME280;27205;53.690;19.948;2023-06-01T18:34:22;99672.45;;;17.08;49.80
41467;BME280;27205;53.690;19.948;2023-06-01T18:39:26;99672.51;;;16.55;51.92
41467;BME280;27205;53.690;19.948;2023-06-01T18:44:29;99671.21;;;16.18;52.30
41467;BME280;27205;53.690;19.948;2023-06-01T18:49:33;99668.54;;;15.88;53.07
41467;BME280;27205;53.690;19.948;2023-06-01T18:54:37;99665.75;;;15.54;54.15
41467;BME280;27205;53.690;19.948;2023-06-01T18:59:40;99673.98;;;15.33;56.48
41467;BME280;27205;53.690;19.948;2023-06-01T19:04:44;99675.52;;;15.07;57.42
41467;BME280;27205;53.690;19.948;2023-06-01T19:09:49;99670.55;;;14.84;57.20
41467;BME280;27205;53.690;19.948;2023-06-01T19:14:54;99675.09;;;14.68;57.86
41467;BME280;27205;53.690;19.948;2023-06-01T19:19:58;99676.74;;;14.58;59.79
41467;BME280;27205;53.690;19.948;2023-06-01T19:25:01;99677.50;;;14.49;59.94
41467;BME280;27205;53.690;19.948;2023-06-01T19:30:06;99679.85;;;14.39;61.10
41467;BME280;27205;53.690;19.948;2023-06-01T19:35:10;99683.77;;;14.33;61.52
41467;BME280;27205;53.690;19.948;2023-06-01T19:40:16;99687.89;;;14.29;61.07
41467;BME280;27205;53.690;19.948;2023-06-01T19:45:23;99681.49;;;14.25;61.49
41467;BME280;27205;53.690;19.948;2023-06-01T19:55:37;99679.83;;;14.11;62.39
41467;BME280;27205;53.690;19.948;2023-06-01T20:00:41;99679.86;;;14.10;62.07
41467;BME280;27205;53.690;19.948;2023-06-01T20:05:45;99676.85;;;14.10;63.26
41467;BME280;27205;53.690;19.948;2023-06-01T20:10:48;99671.23;;;14.12;63.23
41467;BME280;27205;53.690;19.948;2023-06-01T20:15:52;99664.67;;;14.10;62.77
41467;BME280;27205;53.690;19.948;2023-06-01T20:20:56;99666.66;;;14.14;63.90
41467;BME280;27205;53.690;19.948;2023-06-01T20:25:59;99674.38;;;14.10;65.49
41467;BME280;27205;53.690;19.948;2023-06-01T20:31:04;99668.11;;;14.02;64.94
41467;BME280;27205;53.690;19.948;2023-06-01T20:36:08;99668.15;;;13.99;65.48
41467;BME280;27205;53.690;19.948;2023-06-01T20:41:16;99670.65;;;13.95;65.65
41467;BME280;27205;53.690;19.948;2023-06-01T20:46:27;99668.44;;;13.93;65.78
41467;BME280;27205;53.690;19.948;2023-06-01T20:51:37;99679.09;;;13.90;67.58
41467;BME280;27205;53.690;19.948;2023-06-01T20:56:45;99675.98;;;13.77;68.64
41467;BME280;27205;53.690;19.948;2023-06-01T21:01:51;99680.94;;;13.70;68.61
41467;BME280;27205;53.690;19.948;2023-06-01T21:06:56;99677.80;;;13.68;69.46
41467;BME280;27205;53.690;19.948;2023-06-01T21:11:59;99685.12;;;13.63;70.39
41467;BME280;27205;53.690;19.948;2023-06-01T21:17:05;99676.43;;;13.55;70.31
41467;BME280;27205;53.690;19.948;2023-06-01T21:22:09;99668.87;;;13.53;69.82
41467;BME280;27205;53.690;19.948;2023-06-01T21:27:13;99665.60;;;13.53;70.24
41467;BME280;27205;53.690;19.948;2023-06-01T21:32:16;99670.61;;;13.46;70.96
41467;BME280;27205;53.690;19.948;2023-06-01T21:37:20;99670.21;;;13.40;71.21
41467;BME280;27205;53.690;19.948;2023-06-01T21:42:24;99667.98;;;13.34;72.04
41467;BME280;27205;53.690;19.948;2023-06-01T21:47:27;99664.45;;;13.31;71.69
41467;BME280;27205;53.690;19.948;2023-06-01T21:52:31;99660.96;;;13.30;72.75
41467;BME280;27205;53.690;19.948;2023-06-01T21:57:35;99663.60;;;13.25;73.78
41467;BME280;27205;53.690;19.948;2023-06-01T22:02:39;99666.89;;;13.18;73.96
41467;BME280;27205;53.690;19.948;2023-06-01T22:07:43;99671.11;;;13.18;73.90
41467;BME280;27205;53.690;19.948;2023-06-01T22:12:47;99671.89;;;13.15;74.91
41467;BME280;27205;53.690;19.948;2023-06-01T22:17:51;99675.27;;;13.09;75.61
41467;BME280;27205;53.690;19.948;2023-06-01T22:22:55;99675.80;;;13.06;75.41
41467;BME280;27205;53.690;19.948;2023-06-01T22:27:58;99682.97;;;13.03;76.14
41467;BME280;27205;53.690;19.948;2023-06-01T22:33:02;99675.56;;;13.00;76.00
41467;BME280;27205;53.690;19.948;2023-06-01T22:38:06;99673.23;;;13.01;76.14
41467;BME280;27205;53.690;19.948;2023-06-01T22:43:09;99680.80;;;13.01;75.94
41467;BME280;27205;53.690;19.948;2023-06-01T22:48:13;99680.16;;;13.03;75.56
41467;BME280;27205;53.690;19.948;2023-06-01T22:53:17;99679.05;;;13.05;75.53
41467;BME280;27205;53.690;19.948;2023-06-01T22:58:21;99675.45;;;13.04;76.13
41467;BME280;27205;53.690;19.948;2023-06-01T23:03:25;99675.61;;;13.01;76.20
41467;BME280;27205;53.690;19.948;2023-06-01T23:08:29;99676.55;;;12.99;76.31
41467;BME280;27205;53.690;19.948;2023-06-01T23:13:34;99676.52;;;13.01;76.36
41467;BME280;27205;53.690;19.948;2023-06-01T23:18:40;99678.20;;;13.04;76.43
41467;BME280;27205;53.690;19.948;2023-06-01T23:23:43;99680.61;;;13.04;76.29
41467;BME280;27205;53.690;19.948;2023-06-01T23:28:56;99684.59;;;13.04;76.95
41467;BME280;27205;53.690;19.948;2023-06-01T23:34:04;99680.29;;;13.01;77.01
41467;BME280;27205;53.690;19.948;2023-06-01T23:39:10;99678.84;;;12.96;77.20
41467;BME280;27205;53.690;19.948;2023-06-01T23:44:14;99672.65;;;12.93;77.27
41467;BME280;27205;53.690;19.948;2023-06-01T23:49:18;99680.67;;;12.92;77.87
41467;BME280;27205;53.690;19.948;2023-06-01T23:54:22;99685.93;;;12.90;78.15
41467;BME280;27205;53.690;19.948;2023-06-01T23:59:26;99687.41;;;12.88;77.42
